Time;durP1;ratioP1;P1;durP2;ratioP2;P2;SDS_P1;SDS_P2;PMS_P1;PMS_P2;Temp;Humidity;BMP_temperature;BMP_pressure;BME280_temperature;BME280_humidity;BME280_pressure;Samples;Min_cycle;Max_cycle;Signal;HPM_P1;HPM_P2
2023/05/09 00:00:13;;;;;;;48.58;31.08;;;;;;;;;;5040964;28;20037;-69
2023/05/09 00:02:39;;;;;;;57.03;34.35;;;;;;;;;;5010180;28;20045;-69
2023/05/09 00:05:07;;;;;;;52.22;33.03;;;;;;;;;;5010446;28;20048;-69
2023/05/09 00:07:32;;;;;;;59.33;34.35;;;;;;;;;;5009149;28;20159;-69
2023/05/09 00:09:58;;;;;;;49.58;32.50;;;;;;;;;;5040090;28;22261;-69
2023/05/09 00:12:26;;;;;;;56.30;32.75;;;;;;;;;;5041765;28;20041;-70
2023/05/09 00:14:53;;;;;;;54.22;32.88;;;;;;;;;;5041512;28;20419;-70
2023/05/09 00:17:18;;;;;;;58.80;33.33;;;;;;;;;;5009093;28;20462;-69
2023/05/09 00:19:43;;;;;;;56.85;33.50;;;;;;;;;;5040004;28;20122;-69
2023/05/09 00:22:11;;;;;;;55.00;33.35;;;;;;;;;;5009395;28;20160;-70
2023/05/09 00:24:37;;;;;;;59.63;34.17;;;;;;;;;;5008628;28;20715;-69
2023/05/09 00:27:03;;;;;;;59.63;33.80;;;;;;;;;;5009220;28;20052;-68
2023/05/09 00:29:29;;;;;;;61.15;34.47;;;;;;;;;;5037660;28;20068;-70
2023/05/09 00:31:54;;;;;;;59.20;34.30;;;;;;;;;;5008239;28;20861;-69
2023/05/09 00:34:19;;;;;;;57.30;34.65;;;;;;;;;;5040452;28;20153;-69
2023/05/09 00:36:45;;;;;;;61.45;36.05;;;;;;;;;;5006742;28;20110;-69
2023/05/09 00:39:10;;;;;;;55.72;34.72;;;;;;;;;;5006530;28;20454;-69
2023/05/09 00:41:35;;;;;;;60.90;35.05;;;;;;;;;;5006694;28;20041;-69
2023/05/09 00:44:01;;;;;;;59.97;33.88;;;;;;;;;;5012830;28;20049;-69
2023/05/09 00:46:26;;;;;;;57.38;35.55;;;;;;;;;;5006784;28;20041;-69
2023/05/09 00:48:52;;;;;;;59.95;35.38;;;;;;;;;;5007620;28;20499;-69
2023/05/09 00:51:17;;;;;;;60.63;36.25;;;;;;;;;;5038359;28;20045;-69
2023/05/09 00:53:43;;;;;;;61.90;35.30;;;;;;;;;;5007828;28;20124;-69
2023/05/09 00:56:09;;;;;;;60.97;35.83;;;;;;;;;;5005431;28;20037;-69
2023/05/09 00:58:35;;;;;;;64.20;37.67;;;;;;;;;;5008071;28;20092;-68
2023/05/09 01:01:02;;;;;;;63.10;37.95;;;;;;;;;;5006108;28;20034;-69
2023/05/09 01:03:28;;;;;;;62.03;35.05;;;;;;;;;;5007902;28;20796;-69
2023/05/09 01:05:54;;;;;;;65.32;36.83;;;;;;;;;;5007416;28;20118;-69
2023/05/09 01:08:33;;;;;;;61.13;36.17;;;;;;;;;;5037748;28;20033;-69
2023/05/09 01:11:01;;;;;;;62.55;36.67;;;;;;;;;;5006611;28;20088;-70
2023/05/09 01:13:30;;;;;;;63.25;36.75;;;;;;;;;;5007649;28;20095;-69
2023/05/09 01:16:04;;;;;;;65.97;36.83;;;;;;;;;;5002125;28;20692;-69
2023/05/09 01:18:36;;;;;;;62.28;38.35;;;;;;;;;;4986790;28;20041;-68
2023/05/09 01:21:07;;;;;;;69.93;37.63;;;;;;;;;;5006314;28;20090;-69
2023/05/09 01:23:51;;;;;;;66.85;36.75;;;;;;;;;;5007298;28;20039;-69
2023/05/09 01:26:17;;;;;;;65.50;35.95;;;;;;;;;;5007076;28;20037;-69
2023/05/09 01:29:00;;;;;;;65.65;37.83;;;;;;;;;;5038401;28;20044;-69
2023/05/09 01:31:27;;;;;;;67.82;37.60;;;;;;;;;;5006500;28;20757;-70
2023/05/09 01:33:53;;;;;;;67.10;38.17;;;;;;;;;;5012039;28;20045;-71
2023/05/09 01:36:22;;;;;;;67.63;37.88;;;;;;;;;;5036998;28;20037;-69
2023/05/09 01:38:49;;;;;;;68.50;38.50;;;;;;;;;;5009591;28;20048;-69
2023/05/09 01:41:15;;;;;;;65.38;36.88;;;;;;;;;;5006320;28;20849;-68
2023/05/09 01:43:41;;;;;;;69.25;36.65;;;;;;;;;;5038668;28;20601;-69
2023/05/09 01:46:07;;;;;;;68.28;38.42;;;;;;;;;;5008224;28;20238;-69
2023/05/09 01:48:33;;;;;;;68.03;37.53;;;;;;;;;;5005259;28;20091;-69
2023/05/09 01:51:00;;;;;;;62.80;36.55;;;;;;;;;;5037276;28;20037;-69
2023/05/09 01:53:26;;;;;;;64.13;37.60;;;;;;;;;;5008425;28;20033;-69
2023/05/09 01:55:56;;;;;;;69.00;39.10;;;;;;;;;;5038152;28;20063;-68
2023/05/09 01:58:24;;;;;;;64.72;37.00;;;;;;;;;;5008446;28;20189;-69
2023/05/09 02:00:52;;;;;;;65.43;37.30;;;;;;;;;;5007705;28;20128;-70
2023/05/09 02:03:18;;;;;;;67.32;37.95;;;;;;;;;;5007722;28;20167;-69
2023/05/09 02:05:45;;;;;;;67.80;37.25;;;;;;;;;;5038993;28;20371;-68
2023/05/09 02:08:12;;;;;;;64.50;37.15;;;;;;;;;;5007948;28;21800;-68
2023/05/09 02:10:38;;;;;;;67.70;36.95;;;;;;;;;;5039147;28;20046;-70
2023/05/09 02:13:03;;;;;;;60.40;35.78;;;;;;;;;;5007369;28;20037;-69
2023/05/09 02:15:29;;;;;;;67.40;37.30;;;;;;;;;;5039241;28;20045;-68
2023/05/09 02:17:54;;;;;;;63.88;37.20;;;;;;;;;;5038606;28;20395;-68
2023/05/09 02:20:20;;;;;;;67.35;38.15;;;;;;;;;;5007089;28;20045;-70
2023/05/09 02:22:46;;;;;;;66.75;37.15;;;;;;;;;;5007397;28;20069;-67
2023/05/09 02:25:14;;;;;;;73.38;38.05;;;;;;;;;;5006738;28;20088;-68
2023/05/09 02:27:43;;;;;;;61.72;36.67;;;;;;;;;;5038394;28;20048;-68
2023/05/09 02:30:11;;;;;;;61.47;35.03;;;;;;;;;;5004982;28;20179;-68
2023/05/09 02:32:40;;;;;;;59.28;35.42;;;;;;;;;;5038763;28;20794;-70
2023/05/09 02:35:06;;;;;;;62.33;35.67;;;;;;;;;;5008957;28;20044;-69
2023/05/09 02:37:32;;;;;;;71.55;36.85;;;;;;;;;;5007183;28;20469;-68
2023/05/09 02:39:57;;;;;;;62.78;36.85;;;;;;;;;;5007729;28;20619;-69
2023/05/09 02:42:24;;;;;;;61.08;36.45;;;;;;;;;;5021835;28;20056;-70
2023/05/09 02:44:52;;;;;;;55.03;33.95;;;;;;;;;;5007666;28;20068;-69
2023/05/09 02:47:20;;;;;;;66.38;36.72;;;;;;;;;;5006612;28;20041;-68
2023/05/09 02:49:46;;;;;;;62.97;36.10;;;;;;;;;;5001236;28;20053;-68
2023/05/09 02:52:12;;;;;;;57.50;35.13;;;;;;;;;;5006566;28;20041;-68
2023/05/09 02:54:37;;;;;;;61.03;34.75;;;;;;;;;;5039241;28;20068;-68
2023/05/09 02:57:03;;;;;;;65.43;36.78;;;;;;;;;;5037737;28;20065;-69
2023/05/09 02:59:28;;;;;;;73.70;39.08;;;;;;;;;;5007604;28;20036;-67
2023/05/09 03:01:56;;;;;;;71.30;39.47;;;;;;;;;;5009209;28;20540;-69
2023/05/09 03:04:21;;;;;;;64.55;35.67;;;;;;;;;;5006808;28;20831;-69
2023/05/09 03:06:47;;;;;;;69.13;37.70;;;;;;;;;;5005710;28;20029;-68
2023/05/09 03:09:14;;;;;;;68.57;36.63;;;;;;;;;;5037836;28;20034;-67
2023/05/09 03:11:40;;;;;;;67.70;39.03;;;;;;;;;;5007220;28;20030;-67
2023/05/09 03:14:07;;;;;;;72.28;37.03;;;;;;;;;;5038460;28;20056;-68
2023/05/09 03:16:32;;;;;;;65.07;37.50;;;;;;;;;;5036808;28;20551;-68
2023/05/09 03:18:57;;;;;;;67.15;35.92;;;;;;;;;;5004215;28;20045;-67
2023/05/09 03:21:23;;;;;;;65.70;36.65;;;;;;;;;;5027503;28;20383;-67
2023/05/09 03:23:48;;;;;;;69.50;37.10;;;;;;;;;;5006374;28;20071;-67
2023/05/09 03:26:13;;;;;;;70.38;37.47;;;;;;;;;;5007293;28;20037;-67
2023/05/09 03:28:39;;;;;;;69.50;39.58;;;;;;;;;;5037305;28;20128;-67
2023/05/09 03:31:05;;;;;;;68.72;37.65;;;;;;;;;;5041248;28;20092;-67
2023/05/09 03:33:30;;;;;;;73.82;39.00;;;;;;;;;;5041691;28;20641;-68
2023/05/09 03:35:57;;;;;;;69.00;36.30;;;;;;;;;;5011092;28;22231;-67
2023/05/09 03:38:25;;;;;;;62.65;34.60;;;;;;;;;;5010887;28;20034;-68
2023/05/09 03:40:52;;;;;;;64.18;33.45;;;;;;;;;;5028709;28;20072;-67
2023/05/09 03:43:17;;;;;;;63.30;34.15;;;;;;;;;;5010864;28;20045;-68
2023/05/09 03:45:43;;;;;;;55.03;33.25;;;;;;;;;;5010047;28;20067;-67
2023/05/09 03:48:08;;;;;;;51.35;30.95;;;;;;;;;;5011017;28;20549;-67
2023/05/09 03:50:34;;;;;;;50.97;29.17;;;;;;;;;;5009358;28;20038;-67
2023/05/09 03:53:01;;;;;;;51.35;29.80;;;;;;;;;;5010466;28;20039;-67
2023/05/09 03:55:27;;;;;;;48.20;28.48;;;;;;;;;;5042051;28;20041;-66
2023/05/09 03:57:52;;;;;;;48.42;29.15;;;;;;;;;;5009999;28;20060;-67
2023/05/09 04:00:18;;;;;;;46.47;27.58;;;;;;;;;;5008641;28;20390;-67
2023/05/09 04:02:43;;;;;;;46.22;27.25;;;;;;;;;;5010986;28;20132;-67
2023/05/09 04:05:08;;;;;;;41.40;27.85;;;;;;;;;;5010694;28;20048;-68
2023/05/09 04:07:34;;;;;;;38.47;26.08;;;;;;;;;;5010391;28;20071;-67
2023/05/09 04:09:59;;;;;;;44.70;26.58;;;;;;;;;;5010790;28;20765;-69
2023/05/09 04:12:25;;;;;;;43.28;26.85;;;;;;;;;;5040088;28;20033;-67
2023/05/09 04:14:50;;;;;;;41.13;25.33;;;;;;;;;;5009580;28;20152;-67
2023/05/09 04:17:18;;;;;;;39.65;25.05;;;;;;;;;;5012204;28;20045;-66
2023/05/09 04:19:46;;;;;;;37.80;23.80;;;;;;;;;;5041235;28;20052;-67
2023/05/09 04:22:11;;;;;;;41.50;24.83;;;;;;;;;;5040417;28;20052;-68
2023/05/09 04:24:39;;;;;;;36.58;24.30;;;;;;;;;;5010664;28;20891;-66
2023/05/09 04:27:05;;;;;;;40.13;23.95;;;;;;;;;;5010477;28;20036;-67
2023/05/09 04:29:31;;;;;;;38.92;23.20;;;;;;;;;;5010185;28;20044;-67
2023/05/09 04:31:58;;;;;;;37.40;22.45;;;;;;;;;;5007718;28;20251;-67
2023/05/09 04:34:25;;;;;;;36.28;23.45;;;;;;;;;;5008823;28;20040;-67
2023/05/09 04:36:50;;;;;;;37.70;23.17;;;;;;;;;;5009705;28;20068;-67
2023/05/09 04:39:16;;;;;;;38.13;23.10;;;;;;;;;;5009040;28;20038;-67
2023/05/09 04:41:43;;;;;;;32.95;22.05;;;;;;;;;;5034586;28;20114;-67
2023/05/09 04:44:08;;;;;;;33.28;22.02;;;;;;;;;;5007299;28;20083;-67
2023/05/09 04:46:36;;;;;;;33.25;23.05;;;;;;;;;;5039668;28;20563;-68
2023/05/09 04:49:01;;;;;;;41.22;24.15;;;;;;;;;;5009525;28;20037;-67
2023/05/09 04:51:28;;;;;;;34.60;22.63;;;;;;;;;;5040562;28;21022;-68
2023/05/09 04:53:54;;;;;;;33.72;23.45;;;;;;;;;;5008025;28;20037;-66
2023/05/09 04:56:19;;;;;;;36.10;22.60;;;;;;;;;;5037671;28;20048;-68
2023/05/09 04:58:44;;;;;;;33.75;21.92;;;;;;;;;;5040012;28;20048;-67
2023/05/09 05:01:09;;;;;;;31.98;21.63;;;;;;;;;;5009047;28;20941;-67
2023/05/09 05:03:37;;;;;;;28.92;20.25;;;;;;;;;;5005423;28;20063;-68
2023/05/09 05:06:02;;;;;;;28.23;18.92;;;;;;;;;;5024333;28;20072;-68
2023/05/09 05:08:27;;;;;;;45.35;20.83;;;;;;;;;;5038460;28;20034;-67
2023/05/09 05:10:57;;;;;;;29.70;19.08;;;;;;;;;;5007428;28;20984;-67
2023/05/09 05:13:23;;;;;;;30.10;19.38;;;;;;;;;;5007035;28;20026;-66
2023/05/09 05:15:48;;;;;;;30.55;19.27;;;;;;;;;;5037254;28;20537;-70
2023/05/09 05:18:16;;;;;;;31.35;19.75;;;;;;;;;;5007484;28;20126;-69
2023/05/09 05:20:41;;;;;;;36.90;20.08;;;;;;;;;;5004391;28;20048;-70
2023/05/09 05:23:07;;;;;;;34.50;20.40;;;;;;;;;;5007927;28;20053;-71
2023/05/09 05:25:32;;;;;;;37.53;21.55;;;;;;;;;;5039759;28;20034;-71
2023/05/09 05:27:57;;;;;;;34.08;20.83;;;;;;;;;;5009162;28;20041;-70
2023/05/09 05:30:22;;;;;;;35.85;20.92;;;;;;;;;;5041693;28;20052;-72
2023/05/09 05:32:48;;;;;;;43.38;22.38;;;;;;;;;;5011314;28;20060;-73
2023/05/09 05:35:13;;;;;;;33.40;22.70;;;;;;;;;;5006299;28;20048;-73
2023/05/09 05:37:39;;;;;;;38.33;23.13;;;;;;;;;;5005479;28;20671;-72
2023/05/09 05:40:05;;;;;;;40.10;23.02;;;;;;;;;;5022974;28;20037;-71
2023/05/09 05:42:31;;;;;;;49.10;25.85;;;;;;;;;;5013576;28;20055;-74
2023/05/09 05:45:03;;;;;;;40.25;24.58;;;;;;;;;;5036963;28;20076;-74
2023/05/09 05:47:35;;;;;;;75.45;28.77;;;;;;;;;;5007356;28;20132;-76
2023/05/09 05:50:01;;;;;;;39.95;25.60;;;;;;;;;;5008316;28;20055;-75
2023/05/09 05:52:26;;;;;;;45.78;27.38;;;;;;;;;;5008734;28;20667;-76
2023/05/09 05:54:52;;;;;;;44.08;26.92;;;;;;;;;;5008882;28;20029;-75
2023/05/09 05:57:17;;;;;;;43.85;27.88;;;;;;;;;;5009866;28;20065;-74
2023/05/09 05:59:42;;;;;;;38.40;25.83;;;;;;;;;;5038548;28;20084;-76
2023/05/09 06:02:08;;;;;;;43.35;27.70;;;;;;;;;;5005891;28;20087;-75
2023/05/09 06:04:33;;;;;;;43.70;29.02;;;;;;;;;;5008358;28;20042;-74
2023/05/09 06:06:58;;;;;;;47.33;27.98;;;;;;;;;;5007830;28;20988;-74
2023/05/09 06:09:23;;;;;;;49.75;30.35;;;;;;;;;;5036654;28;20053;-75
2023/05/09 06:11:49;;;;;;;46.22;27.77;;;;;;;;;;5007137;28;20045;-73
2023/05/09 06:14:14;;;;;;;40.95;26.42;;;;;;;;;;5006331;28;20700;-72
2023/05/09 06:16:40;;;;;;;39.55;25.58;;;;;;;;;;5004356;28;20056;-74
2023/05/09 06:19:05;;;;;;;46.00;26.95;;;;;;;;;;5015562;28;20036;-74
2023/05/09 06:21:30;;;;;;;38.25;25.58;;;;;;;;;;5038016;28;20077;-74
2023/05/09 06:23:55;;;;;;;42.60;25.67;;;;;;;;;;5037658;28;20045;-73
2023/05/09 06:26:21;;;;;;;37.47;26.20;;;;;;;;;;5005633;28;20453;-73
2023/05/09 06:28:46;;;;;;;42.97;26.98;;;;;;;;;;5031846;28;20064;-73
2023/05/09 06:31:11;;;;;;;44.40;28.08;;;;;;;;;;5010433;28;20070;-74
2023/05/09 06:33:39;;;;;;;39.72;27.08;;;;;;;;;;5013047;28;20515;-73
2023/05/09 06:36:04;;;;;;;45.15;27.38;;;;;;;;;;5011671;28;20524;-73
2023/05/09 06:38:35;;;;;;;42.28;27.23;;;;;;;;;;5011556;28;20358;-73
2023/05/09 06:41:00;;;;;;;46.60;27.38;;;;;;;;;;5018848;28;20045;-76
2023/05/09 06:43:30;;;;;;;39.50;26.77;;;;;;;;;;5014623;28;20888;-73
2023/05/09 06:45:55;;;;;;;43.03;27.45;;;;;;;;;;5039256;28;20099;-74
2023/05/09 06:48:22;;;;;;;47.47;32.15;;;;;;;;;;5018337;28;20033;-75
2023/05/09 06:50:48;;;;;;;45.65;27.33;;;;;;;;;;5015444;28;20060;-73
2023/05/09 06:53:14;;;;;;;44.72;28.23;;;;;;;;;;5021923;28;20112;-74
2023/05/09 06:55:39;;;;;;;43.35;28.13;;;;;;;;;;5022631;28;20030;-72
2023/05/09 06:58:04;;;;;;;46.60;28.60;;;;;;;;;;5027922;28;22263;-72
2023/05/09 07:00:29;;;;;;;51.47;30.50;;;;;;;;;;5030405;28;20532;-72
2023/05/09 07:02:55;;;;;;;49.95;31.27;;;;;;;;;;5025963;28;20047;-72
2023/05/09 07:05:20;;;;;;;72.28;33.97;;;;;;;;;;5044966;28;20042;-73
2023/05/09 07:07:45;;;;;;;162.13;41.45;;;;;;;;;;5032040;28;20120;-73
2023/05/09 07:10:11;;;;;;;85.15;36.38;;;;;;;;;;5027755;28;20433;-72
2023/05/09 07:12:36;;;;;;;48.20;30.52;;;;;;;;;;5026891;28;20276;-72
2023/05/09 07:15:05;;;;;;;49.30;29.77;;;;;;;;;;5032986;28;20088;-71
2023/05/09 07:17:30;;;;;;;56.53;29.73;;;;;;;;;;5021280;28;20064;-71
2023/05/09 07:19:55;;;;;;;51.65;28.77;;;;;;;;;;5020468;28;20113;-71
2023/05/09 07:22:21;;;;;;;43.33;26.75;;;;;;;;;;5038843;28;20108;-71
2023/05/09 07:24:46;;;;;;;44.28;28.05;;;;;;;;;;5001780;28;20034;-72
2023/05/09 07:27:11;;;;;;;39.35;26.02;;;;;;;;;;5025693;28;20054;-72
2023/05/09 07:29:37;;;;;;;40.75;25.20;;;;;;;;;;4993901;28;20132;-71
2023/05/09 07:32:05;;;;;;;50.08;29.20;;;;;;;;;;4990574;28;20813;-71
2023/05/09 07:34:30;;;;;;;56.05;31.73;;;;;;;;;;4987575;28;20033;-68
2023/05/09 07:37:00;;;;;;;49.47;30.05;;;;;;;;;;4992999;28;20134;-68
2023/05/09 07:39:28;;;;;;;38.35;23.70;;;;;;;;;;4987415;28;20471;-68
2023/05/09 07:41:56;;;;;;;33.10;20.97;;;;;;;;;;4987715;28;20037;-71
2023/05/09 07:44:22;;;;;;;36.35;21.60;;;;;;;;;;4989577;28;20293;-69
2023/05/09 07:46:47;;;;;;;33.00;20.38;;;;;;;;;;4983457;28;20505;-70
2023/05/09 07:49:12;;;;;;;38.25;21.88;;;;;;;;;;5010771;28;20037;-69
2023/05/09 07:51:38;;;;;;;32.45;19.30;;;;;;;;;;4987527;28;20026;-70
2023/05/09 07:54:03;;;;;;;29.50;18.55;;;;;;;;;;4988082;28;20038;-71
2023/05/09 07:56:31;;;;;;;29.88;19.13;;;;;;;;;;4993304;28;20145;-69
2023/05/09 07:58:58;;;;;;;33.10;18.67;;;;;;;;;;4987239;28;20471;-67
2023/05/09 08:01:23;;;;;;;30.67;17.88;;;;;;;;;;4988106;28;20042;-70
2023/05/09 08:03:51;;;;;;;31.58;19.00;;;;;;;;;;4991730;28;20100;-69
2023/05/09 08:06:16;;;;;;;30.25;17.73;;;;;;;;;;4998127;28;20037;-70
2023/05/09 08:08:44;;;;;;;26.52;17.05;;;;;;;;;;4993521;28;20098;-68
2023/05/09 08:11:09;;;;;;;29.83;18.05;;;;;;;;;;5009261;28;20037;-69
2023/05/09 08:13:37;;;;;;;26.48;17.35;;;;;;;;;;5008333;28;20025;-69
2023/05/09 08:16:02;;;;;;;38.95;17.55;;;;;;;;;;5006948;28;20108;-68
2023/05/09 08:18:28;;;;;;;23.92;15.75;;;;;;;;;;5008010;28;20041;-69
2023/05/09 08:20:57;;;;;;;21.52;13.80;;;;;;;;;;5006498;28;20199;-71
2023/05/09 08:23:22;;;;;;;21.80;13.30;;;;;;;;;;5038410;28;20414;-70
2023/05/09 08:25:51;;;;;;;19.75;11.90;;;;;;;;;;5008473;28;20065;-70
2023/05/09 08:28:19;;;;;;;18.95;11.43;;;;;;;;;;5007592;28;20120;-72
2023/05/09 08:30:44;;;;;;;17.27;11.98;;;;;;;;;;5008026;28;20048;-68
2023/05/09 08:33:09;;;;;;;16.08;11.30;;;;;;;;;;5037493;28;20675;-71
2023/05/09 08:35:35;;;;;;;20.23;10.52;;;;;;;;;;5039870;28;20125;-71
2023/05/09 08:38:00;;;;;;;16.38;10.85;;;;;;;;;;5039243;28;20171;-71
2023/05/09 08:40:25;;;;;;;14.75;10.77;;;;;;;;;;5004466;28;20130;-70
2023/05/09 08:42:51;;;;;;;23.40;11.27;;;;;;;;;;5019631;28;20058;-71
2023/05/09 08:45:18;;;;;;;16.15;10.52;;;;;;;;;;5006786;28;20043;-69
2023/05/09 08:47:44;;;;;;;17.30;10.20;;;;;;;;;;5039545;28;20109;-69
2023/05/09 08:50:10;;;;;;;14.35;9.82;;;;;;;;;;5038186;28;20034;-70
2023/05/09 08:52:36;;;;;;;17.10;11.18;;;;;;;;;;5004155;28;20040;-68
2023/05/09 08:55:03;;;;;;;16.08;10.95;;;;;;;;;;5005040;28;20739;-69
2023/05/09 08:57:33;;;;;;;16.13;10.52;;;;;;;;;;5007082;28;20134;-69
2023/05/09 08:59:59;;;;;;;17.60;12.85;;;;;;;;;;5004610;28;21799;-69
2023/05/09 09:02:24;;;;;;;15.93;10.68;;;;;;;;;;5004585;28;20034;-69
2023/05/09 09:04:50;;;;;;;18.27;11.48;;;;;;;;;;5003775;28;20067;-71
2023/05/09 09:07:15;;;;;;;19.50;12.15;;;;;;;;;;5005402;28;20478;-70
2023/05/09 09:09:45;;;;;;;17.95;11.80;;;;;;;;;;5004440;28;20318;-69
2023/05/09 09:12:12;;;;;;;20.73;13.45;;;;;;;;;;5039517;28;20029;-68
2023/05/09 09:14:39;;;;;;;20.42;13.48;;;;;;;;;;5005097;28;20041;-69
2023/05/09 09:17:07;;;;;;;22.65;16.08;;;;;;;;;;5038357;28;20591;-71
2023/05/09 09:19:35;;;;;;;22.92;15.50;;;;;;;;;;5000679;28;20048;-69
2023/05/09 09:22:03;;;;;;;21.95;16.58;;;;;;;;;;4999355;28;20063;-68
2023/05/09 09:24:28;;;;;;;24.23;16.92;;;;;;;;;;5001346;28;20853;-70
2023/05/09 09:26:53;;;;;;;21.30;16.52;;;;;;;;;;5022072;28;20033;-70
2023/05/09 09:29:22;;;;;;;21.75;17.23;;;;;;;;;;5002211;28;20419;-69
2023/05/09 09:31:51;;;;;;;184.00;31.58;;;;;;;;;;5004933;28;20096;-68
2023/05/09 09:34:20;;;;;;;25.73;18.67;;;;;;;;;;5003628;28;20121;-67
2023/05/09 09:36:47;;;;;;;38.10;19.35;;;;;;;;;;5000532;28;20143;-69
2023/05/09 09:39:12;;;;;;;24.85;17.33;;;;;;;;;;5031973;28;20296;-68
2023/05/09 09:41:38;;;;;;;24.08;17.65;;;;;;;;;;4997766;28;20123;-69
2023/05/09 09:44:11;;;;;;;24.33;18.90;;;;;;;;;;4999756;28;20457;-69
2023/05/09 09:46:43;;;;;;;24.45;18.23;;;;;;;;;;4978822;28;20126;-69
2023/05/09 09:49:09;;;;;;;22.20;18.38;;;;;;;;;;5008592;28;20106;-68
2023/05/09 09:51:34;;;;;;;23.30;19.08;;;;;;;;;;4987647;28;20960;-69
2023/05/09 09:54:03;;;;;;;32.35;20.63;;;;;;;;;;4979114;28;20210;-67
2023/05/09 09:56:48;;;;;;;23.80;18.92;;;;;;;;;;4976684;28;20034;-67
2023/05/09 09:59:17;;;;;;;24.70;18.00;;;;;;;;;;4977957;28;20045;-68
2023/05/09 10:02:02;;;;;;;23.83;17.85;;;;;;;;;;5009908;28;20042;-68
2023/05/09 10:04:32;;;;;;;24.88;17.42;;;;;;;;;;4978969;28;20064;-69
2023/05/09 10:06:58;;;;;;;24.30;17.60;;;;;;;;;;4980459;28;20071;-68
2023/05/09 10:09:24;;;;;;;25.17;18.15;;;;;;;;;;4986034;28;20047;-68
2023/05/09 10:11:53;;;;;;;24.73;19.50;;;;;;;;;;5030644;28;20045;-70
2023/05/09 10:14:20;;;;;;;31.95;20.05;;;;;;;;;;5010961;28;20046;-70
2023/05/09 10:16:46;;;;;;;23.10;17.45;;;;;;;;;;4993342;28;20045;-67
2023/05/09 10:19:16;;;;;;;26.23;18.52;;;;;;;;;;4982384;28;20064;-70
2023/05/09 10:21:41;;;;;;;25.00;17.25;;;;;;;;;;5014117;28;20688;-70
2023/05/09 10:24:07;;;;;;;30.38;18.20;;;;;;;;;;4980003;28;20058;-68
2023/05/09 10:26:36;;;;;;;19.05;15.88;;;;;;;;;;4999366;28;20127;-68
2023/05/09 10:29:06;;;;;;;31.10;18.00;;;;;;;;;;5001336;28;20037;-69
2023/05/09 10:31:35;;;;;;;20.90;17.83;;;;;;;;;;5003111;28;20048;-70
2023/05/09 10:34:04;;;;;;;29.92;18.90;;;;;;;;;;5036919;28;20045;-69
2023/05/09 10:36:30;;;;;;;21.13;16.73;;;;;;;;;;5002887;28;20067;-68
2023/05/09 10:38:55;;;;;;;23.00;18.05;;;;;;;;;;5019788;28;20033;-69
2023/05/09 10:41:23;;;;;;;22.40;17.27;;;;;;;;;;4980083;28;20042;-67
2023/05/09 10:43:48;;;;;;;22.40;16.73;;;;;;;;;;4985074;28;20216;-67
2023/05/09 10:46:14;;;;;;;22.63;16.75;;;;;;;;;;4979313;28;20129;-67
2023/05/09 10:48:40;;;;;;;23.00;17.60;;;;;;;;;;4965376;28;20034;-68
2023/05/09 10:51:06;;;;;;;21.50;17.00;;;;;;;;;;4978795;28;20150;-71
2023/05/09 10:53:43;;;;;;;21.55;16.42;;;;;;;;;;4992584;28;20172;-71
2023/05/09 10:56:08;;;;;;;21.70;17.40;;;;;;;;;;4977748;28;20537;-70
2023/05/09 10:58:36;;;;;;;19.40;16.20;;;;;;;;;;4978738;28;20033;-68
2023/05/09 11:01:02;;;;;;;24.80;16.67;;;;;;;;;;4981318;28;20124;-68
2023/05/09 11:03:28;;;;;;;23.85;16.70;;;;;;;;;;4980314;28;20790;-69
2023/05/09 11:05:55;;;;;;;22.27;17.50;;;;;;;;;;4979855;28;22196;-70
2023/05/09 11:08:20;;;;;;;22.15;16.80;;;;;;;;;;4978855;28;20044;-70
2023/05/09 11:10:46;;;;;;;24.15;19.25;;;;;;;;;;4976817;28;20045;-69
2023/05/09 11:13:11;;;;;;;24.40;17.30;;;;;;;;;;5014102;28;20118;-70
2023/05/09 11:15:51;;;;;;;22.75;16.08;;;;;;;;;;4986339;28;20049;-72
2023/05/09 11:18:18;;;;;;;26.58;17.10;;;;;;;;;;4984223;28;20638;-72
2023/05/09 11:20:45;;;;;;;21.15;17.05;;;;;;;;;;4986357;28;20137;-72
2023/05/09 11:23:10;;;;;;;27.38;18.55;;;;;;;;;;4986671;28;20045;-71
2023/05/09 11:25:37;;;;;;;22.95;16.95;;;;;;;;;;4986911;28;20038;-71
2023/05/09 11:28:05;;;;;;;23.88;16.92;;;;;;;;;;4985096;28;20041;-69
2023/05/09 11:30:37;;;;;;;23.55;17.52;;;;;;;;;;4976878;28;20049;-69
2023/05/09 11:33:05;;;;;;;26.35;19.98;;;;;;;;;;4983094;28;20041;-70
2023/05/09 11:35:32;;;;;;;25.60;17.35;;;;;;;;;;4983058;28;20046;-70
2023/05/09 11:38:00;;;;;;;27.58;17.52;;;;;;;;;;4981682;28;20065;-70
2023/05/09 11:40:28;;;;;;;26.50;15.75;;;;;;;;;;4985110;28;20518;-68
2023/05/09 11:42:57;;;;;;;18.02;13.77;;;;;;;;;;4981840;28;20049;-69
2023/05/09 11:45:25;;;;;;;20.75;15.35;;;;;;;;;;5013524;28;20348;-71
2023/05/09 11:47:53;;;;;;;24.00;17.77;;;;;;;;;;4984418;28;20197;-70
2023/05/09 11:50:20;;;;;;;21.95;16.98;;;;;;;;;;4984623;28;20045;-71
2023/05/09 11:52:47;;;;;;;20.42;15.00;;;;;;;;;;4984028;28;20034;-73
2023/05/09 11:55:13;;;;;;;30.67;16.95;;;;;;;;;;4990464;28;20045;-75
2023/05/09 11:57:48;;;;;;;24.08;16.98;;;;;;;;;;4993389;28;20041;-73
2023/05/09 12:00:24;;;;;;;24.02;19.02;;;;;;;;;;4989013;28;20054;-73
2023/05/09 12:02:49;;;;;;;41.85;31.80;;;;;;;;;;4981873;28;20046;-69
2023/05/09 12:05:17;;;;;;;30.15;23.65;;;;;;;;;;4982257;28;21286;-70
2023/05/09 12:07:45;;;;;;;29.17;22.88;;;;;;;;;;4986211;28;20117;-70
2023/05/09 12:10:15;;;;;;;20.73;16.90;;;;;;;;;;4986089;28;20070;-69
2023/05/09 12:12:50;;;;;;;23.85;17.45;;;;;;;;;;4997174;28;20044;-70
2023/05/09 12:15:19;;;;;;;38.65;26.85;;;;;;;;;;5018551;28;20554;-70
2023/05/09 12:17:45;;;;;;;23.67;19.45;;;;;;;;;;5004747;28;20119;-72
2023/05/09 12:20:11;;;;;;;36.53;23.00;;;;;;;;;;5004284;28;20785;-68
2023/05/09 12:22:36;;;;;;;44.20;27.83;;;;;;;;;;5004282;28;20490;-70
2023/05/09 12:25:11;;;;;;;41.90;26.67;;;;;;;;;;5002842;28;20038;-69
2023/05/09 12:27:37;;;;;;;32.42;19.52;;;;;;;;;;4983158;28;20096;-71
2023/05/09 12:30:08;;;;;;;33.53;22.00;;;;;;;;;;5016146;28;20061;-69
2023/05/09 12:32:35;;;;;;;41.33;26.35;;;;;;;;;;5016832;28;20037;-71
2023/05/09 12:35:01;;;;;;;34.05;22.55;;;;;;;;;;4989566;28;20717;-71
2023/05/09 12:37:29;;;;;;;24.45;17.48;;;;;;;;;;4990728;28;20034;-70
2023/05/09 12:40:00;;;;;;;16.88;13.50;;;;;;;;;;4988592;28;20069;-71
2023/05/09 12:42:28;;;;;;;19.85;16.35;;;;;;;;;;4998187;28;20034;-69
2023/05/09 12:44:53;;;;;;;26.25;19.52;;;;;;;;;;4986001;28;20045;-70
2023/05/09 12:47:21;;;;;;;19.08;15.75;;;;;;;;;;5004576;28;20442;-70
2023/05/09 12:49:49;;;;;;;25.33;18.60;;;;;;;;;;4989295;28;20061;-67
2023/05/09 12:52:19;;;;;;;34.90;24.92;;;;;;;;;;5019333;28;20404;-69
2023/05/09 12:54:50;;;;;;;52.92;28.05;;;;;;;;;;4988593;28;20335;-69
2023/05/09 12:57:22;;;;;;;39.05;26.40;;;;;;;;;;4986572;28;20046;-69
2023/05/09 12:59:48;;;;;;;46.33;27.15;;;;;;;;;;5021235;28;20180;-70
2023/05/09 13:02:13;;;;;;;43.13;25.80;;;;;;;;;;4989264;28;20514;-70
2023/05/09 13:04:38;;;;;;;45.10;27.05;;;;;;;;;;4988593;28;20058;-70
2023/05/09 13:07:07;;;;;;;44.20;26.23;;;;;;;;;;4989596;28;20030;-71
2023/05/09 13:09:33;;;;;;;29.88;18.77;;;;;;;;;;4988996;28;20034;-69
2023/05/09 13:11:59;;;;;;;91.28;19.75;;;;;;;;;;4988907;28;20042;-70
2023/05/09 13:14:24;;;;;;;41.10;21.42;;;;;;;;;;4997867;28;20119;-73
2023/05/09 13:16:52;;;;;;;21.33;17.10;;;;;;;;;;4992495;28;20534;-70
2023/05/09 13:19:17;;;;;;;32.63;21.55;;;;;;;;;;4989135;28;20483;-71
2023/05/09 13:21:42;;;;;;;24.35;16.45;;;;;;;;;;4988971;28;20037;-70
2023/05/09 13:24:08;;;;;;;25.60;18.55;;;;;;;;;;4988171;28;20137;-70
2023/05/09 13:26:33;;;;;;;33.33;18.10;;;;;;;;;;4988325;28;20077;-72
2023/05/09 13:28:58;;;;;;;34.35;20.48;;;;;;;;;;4994309;28;20041;-72
2023/05/09 13:31:24;;;;;;;27.85;20.05;;;;;;;;;;4991999;28;20073;-75
2023/05/09 13:33:49;;;;;;;35.30;22.80;;;;;;;;;;4990475;28;20034;-71
2023/05/09 13:36:15;;;;;;;96.35;24.52;;;;;;;;;;4989866;28;20056;-72
2023/05/09 13:38:40;;;;;;;46.08;18.42;;;;;;;;;;5003177;28;20076;-69
2023/05/09 13:41:08;;;;;;;25.08;15.82;;;;;;;;;;4988821;28;20080;-69
2023/05/09 13:43:34;;;;;;;20.85;14.05;;;;;;;;;;4988172;28;20393;-70
2023/05/09 13:46:02;;;;;;;15.27;13.63;;;;;;;;;;5002991;28;20603;-69
2023/05/09 13:48:27;;;;;;;17.17;14.45;;;;;;;;;;4988756;28;20038;-70
2023/05/09 13:50:53;;;;;;;22.85;17.58;;;;;;;;;;4988404;28;20040;-69
2023/05/09 13:53:18;;;;;;;28.35;17.33;;;;;;;;;;5019108;28;20042;-70
2023/05/09 13:55:46;;;;;;;17.17;15.35;;;;;;;;;;4988586;28;20038;-69
2023/05/09 13:58:11;;;;;;;19.15;16.20;;;;;;;;;;4987845;28;20038;-72
2023/05/09 14:00:37;;;;;;;15.55;13.80;;;;;;;;;;4986635;28;20104;-70
2023/05/09 14:03:02;;;;;;;15.48;13.88;;;;;;;;;;4976060;28;20561;-70
2023/05/09 14:05:30;;;;;;;16.77;14.00;;;;;;;;;;4987629;28;20093;-70
2023/05/09 14:07:56;;;;;;;17.33;15.52;;;;;;;;;;4989414;28;20108;-71
2023/05/09 14:10:23;;;;;;;18.90;16.00;;;;;;;;;;4991489;28;20362;-70
2023/05/09 14:12:48;;;;;;;18.60;16.65;;;;;;;;;;4995482;28;20033;-70